Wellington, New Zealand

7:10 AM NZDT on November 29, 2014 (GMT +1300)
Wellington International | Change Station
CLOSE
Current Station
Airport
Location: Wellington,
Elevation: 39 ft
Nearby Weather Stations

Elev 39 ft 41.33 °S, 174.81 °E | Updated 10 minutes ago

Partly Cloudy
Partly Cloudy
48 °F
Feels Like 48 °F
N
10
Wind Variable Wind from NNE

Today
High -- | Low -- °F
--% Chance of Precip.
Yesterday
High -- | Low -- °F
Precip. -- in
5:43 AM 8:35 PM
Waxing Crescent, 42% visible
Pressure 29.71 in
Visibility 6.2 miles
Clouds Few 3800 ft
Dew Point 46 °F
Humidity 93%
Rainfall 0.00 in
Snow Depth Not available.
UV 1 out of 12
Pollen Not available.
Air Quality Not available.
Flu Activity Not available.
METAR NZWN 281800Z AUTO 02009KT 9999 FEW038/// 09/08 Q1006 NOSIG

More Conditions Fewer Conditions

Pressure 29.71 in
Visibility 6.2 miles
Clouds Few 3800 ft
Dew Point 46 °F
Humidity 93%
Rainfall 0.00 in
Snow Depth Not available.
UV 1 out of 12
Pollen Not available.
Air Quality Not available.
Flu Activity Not available.
METAR NZWN 281800Z AUTO 02009KT 9999 FEW038/// 09/08 Q1006 NOSIG

More Conditions Fewer Conditions

10-Day Weather Forecast

Almanac

Astronomy

Nov. 29, 2014 Rise Set
Actual Time
Civil Twilight
Nautical Twilight
Astronomical Twilight
Moon
Length of Visible Light
Length of Day
Tomorrow will be .
, % of the Moon is Illuminated

Today's Extremes

Country Highs Country Lows

Community

WunderPhotos

Upload Photos

1,774,249 photos uploaded!

WunderBlogs® & News

Nearby

Air Quality

  Air Quality AQ Index Pollutant
Not available.

Snow Depth

Station Depth Elevation

Earthquake Activity

City Distance Mag. Time & Date
Minimum magnitude displayed is 2.5.

Coastal Water Temperatures

Place Temperature

Nearby Weather Stations